DLH133 EDDK-ENBR
Flight info
| Callsign | DLH133 |
|---|---|
| Flight time | 1h 41m |
| Altitude | 36000 |
| Route | PODIP1R/31R PODIP Y867 PELUN DCT ANZIV DCT WRB DCT TOLGI DCT LUTIR DCT BADAB |
| Aircraft | A320/M-SDE3FGHIRWY/LB1 |
Departure
| Time | 2026-05-06 19:14 |
|---|---|
| Airport | Cologne Bonn Airport (EDDK) |
Arrival
| Time | 2026-05-06 20:56 |
|---|---|
| Airport | Bergen Airport, Flesland (ENBR) |
| Time | Latitude | Longitude | Altitude | Speed | Heading |
|---|---|---|---|---|---|
| 2026-05-06 18:27 | 50.88105 | 7.12093 | 230 ft | 0 kts | 216° |
| 2026-05-06 18:55 | 50.88109 | 7.12098 | 230 ft | 3 kts | 216° |
| 2026-05-06 18:55 | 50.88124 | 7.12114 | 232 ft | 3 kts | 216° |
| 2026-05-06 18:55 | 50.88137 | 7.12130 | 232 ft | 2 kts | 208° |
| 2026-05-06 18:55 | 50.88153 | 7.12134 | 230 ft | 2 kts | 135° |
| 2026-05-06 18:56 | 50.88155 | 7.12131 | 230 ft | 0 kts | 130° |
| 2026-05-06 18:58 | 50.88155 | 7.12132 | 230 ft | 1 kts | 130° |
| 2026-05-06 18:58 | 50.88152 | 7.12207 | 230 ft | 8 kts | 77° |
| 2026-05-06 18:58 | 50.88154 | 7.12298 | 230 ft | 12 kts | 88° |
| 2026-05-06 18:59 | 50.88133 | 7.12420 | 230 ft | 11 kts | 126° |
| 2026-05-06 18:59 | 50.88064 | 7.12530 | 230 ft | 16 kts | 137° |
| 2026-05-06 18:59 | 50.87995 | 7.12629 | 231 ft | 11 kts | 143° |
| 2026-05-06 18:59 | 50.87900 | 7.12619 | 230 ft | 17 kts | 194° |
| 2026-05-06 19:00 | 50.87798 | 7.12657 | 231 ft | 16 kts | 140° |
| 2026-05-06 19:00 | 50.87713 | 7.12778 | 230 ft | 19 kts | 137° |
| 2026-05-06 19:00 | 50.87603 | 7.12937 | 230 ft | 23 kts | 137° |
| 2026-05-06 19:00 | 50.87520 | 7.13058 | 232 ft | 25 kts | 137° |
| 2026-05-06 19:01 | 50.87352 | 7.13302 | 233 ft | 24 kts | 137° |
| 2026-05-06 19:01 | 50.87250 | 7.13449 | 238 ft | 16 kts | 137° |
| 2026-05-06 19:01 | 50.87179 | 7.13553 | 238 ft | 13 kts | 137° |
| 2026-05-06 19:01 | 50.87118 | 7.13641 | 240 ft | 15 kts | 137° |
| 2026-05-06 19:02 | 50.87014 | 7.13790 | 243 ft | 18 kts | 137° |
| 2026-05-06 19:02 | 50.86929 | 7.13912 | 243 ft | 15 kts | 138° |
| 2026-05-06 19:02 | 50.86839 | 7.14040 | 246 ft | 18 kts | 138° |
| 2026-05-06 19:02 | 50.86749 | 7.14131 | 252 ft | 15 kts | 156° |
| 2026-05-06 19:03 | 50.86648 | 7.14265 | 257 ft | 22 kts | 137° |
| 2026-05-06 19:03 | 50.86542 | 7.14422 | 257 ft | 20 kts | 137° |
| 2026-05-06 19:03 | 50.86445 | 7.14563 | 262 ft | 16 kts | 137° |
| 2026-05-06 19:03 | 50.86356 | 7.14689 | 265 ft | 23 kts | 138° |
| 2026-05-06 19:04 | 50.86221 | 7.14881 | 270 ft | 28 kts | 138° |
| 2026-05-06 19:04 | 50.86082 | 7.15081 | 275 ft | 26 kts | 137° |
| 2026-05-06 19:04 | 50.85950 | 7.15273 | 281 ft | 25 kts | 137° |
| 2026-05-06 19:04 | 50.85831 | 7.15450 | 287 ft | 22 kts | 137° |
| 2026-05-06 19:05 | 50.85732 | 7.15591 | 295 ft | 17 kts | 138° |
| 2026-05-06 19:05 | 50.85643 | 7.15716 | 299 ft | 23 kts | 138° |
| 2026-05-06 19:05 | 50.85511 | 7.15907 | 299 ft | 26 kts | 136° |
| 2026-05-06 19:05 | 50.85395 | 7.16080 | 303 ft | 16 kts | 135° |
| 2026-05-06 19:06 | 50.85339 | 7.16215 | 306 ft | 14 kts | 107° |
| 2026-05-06 19:06 | 50.85338 | 7.16321 | 309 ft | 8 kts | 78° |
| 2026-05-06 19:06 | 50.85349 | 7.16370 | 310 ft | 0 kts | 66° |
| 2026-05-06 19:09 | 50.85374 | 7.16433 | 311 ft | 8 kts | 51° |
| 2026-05-06 19:09 | 50.85402 | 7.16474 | 313 ft | 6 kts | 36° |
| 2026-05-06 19:10 | 50.85410 | 7.16481 | 313 ft | 0 kts | 32° |
| 2026-05-06 19:12 | 50.85423 | 7.16492 | 313 ft | 9 kts | 26° |
| 2026-05-06 19:12 | 50.85528 | 7.16512 | 313 ft | 17 kts | 348° |
| 2026-05-06 19:12 | 50.85588 | 7.16464 | 309 ft | 0 kts | 319° |
| 2026-05-06 19:13 | 50.85623 | 7.16414 | 310 ft | 33 kts | 318° |
| 2026-05-06 19:13 | 50.85978 | 7.15909 | 301 ft | 101 kts | 317° |
| 2026-05-06 19:13 | 50.86641 | 7.14951 | 263 ft | 154 kts | 317° |
| 2026-05-06 19:14 | 50.87505 | 7.13711 | 496 ft | 177 kts | 317° |
| 2026-05-06 19:14 | 50.88428 | 7.12374 | 1232 ft | 179 kts | 318° |
| 2026-05-06 19:14 | 50.89459 | 7.11270 | 1813 ft | 188 kts | 344° |
| 2026-05-06 19:14 | 50.90802 | 7.11413 | 2219 ft | 206 kts | 24° |
| 2026-05-06 19:15 | 50.92070 | 7.12508 | 3035 ft | 208 kts | 27° |
| 2026-05-06 19:15 | 50.93273 | 7.13804 | 3821 ft | 213 kts | 44° |
| 2026-05-06 19:15 | 50.94135 | 7.15786 | 4302 ft | 235 kts | 62° |
| 2026-05-06 19:15 | 50.94895 | 7.18229 | 4695 ft | 258 kts | 62° |
| 2026-05-06 19:16 | 50.95705 | 7.20829 | 5390 ft | 267 kts | 62° |
| 2026-05-06 19:16 | 50.96533 | 7.23486 | 6225 ft | 271 kts | 62° |
| 2026-05-06 19:16 | 50.97377 | 7.26173 | 7032 ft | 273 kts | 61° |
| 2026-05-06 19:16 | 50.98234 | 7.28881 | 7876 ft | 275 kts | 61° |
| 2026-05-06 19:17 | 50.99092 | 7.31590 | 8734 ft | 276 kts | 60° |
| 2026-05-06 19:17 | 50.99958 | 7.34327 | 9594 ft | 278 kts | 60° |
| 2026-05-06 19:17 | 51.00803 | 7.37121 | 10276 ft | 287 kts | 66° |
| 2026-05-06 19:17 | 51.01306 | 7.40333 | 10490 ft | 314 kts | 80° |
| 2026-05-06 19:18 | 51.01364 | 7.43894 | 10659 ft | 340 kts | 91° |
| 2026-05-06 19:18 | 51.00978 | 7.47737 | 10801 ft | 365 kts | 102° |
| 2026-05-06 19:18 | 51.00214 | 7.51648 | 11238 ft | 376 kts | 105° |
| 2026-05-06 19:18 | 50.99428 | 7.55637 | 11859 ft | 380 kts | 105° |
| 2026-05-06 19:19 | 50.98643 | 7.59676 | 12459 ft | 386 kts | 107° |
| 2026-05-06 19:19 | 50.97850 | 7.63769 | 13048 ft | 391 kts | 108° |
| 2026-05-06 19:19 | 50.97044 | 7.67905 | 13675 ft | 395 kts | 108° |
| 2026-05-06 19:19 | 50.96225 | 7.72095 | 14228 ft | 399 kts | 108° |
| 2026-05-06 19:20 | 50.95619 | 7.76397 | 14749 ft | 403 kts | 97° |
| 2026-05-06 19:20 | 50.95543 | 7.80842 | 15280 ft | 407 kts | 85° |
| 2026-05-06 19:20 | 50.96038 | 7.85284 | 15798 ft | 410 kts | 73° |
| 2026-05-06 19:20 | 50.97091 | 7.89496 | 16321 ft | 412 kts | 62° |
| 2026-05-06 19:21 | 50.98517 | 7.93393 | 16833 ft | 415 kts | 58° |
| 2026-05-06 19:21 | 50.99992 | 7.97347 | 17355 ft | 418 kts | 58° |
| 2026-05-06 19:21 | 51.01471 | 8.01338 | 17774 ft | 421 kts | 59° |
| 2026-05-06 19:21 | 51.02952 | 8.05355 | 17842 ft | 421 kts | 59° |
| 2026-05-06 19:22 | 51.04437 | 8.09394 | 17861 ft | 427 kts | 59° |
| 2026-05-06 19:22 | 51.05938 | 8.13489 | 17873 ft | 429 kts | 59° |
| 2026-05-06 19:22 | 51.07440 | 8.17598 | 18269 ft | 430 kts | 59° |
| 2026-05-06 19:22 | 51.08944 | 8.21723 | 18770 ft | 432 kts | 59° |
| 2026-05-06 19:23 | 51.10457 | 8.25874 | 19223 ft | 434 kts | 59° |
| 2026-05-06 19:23 | 51.11969 | 8.30037 | 19661 ft | 437 kts | 60° |
| 2026-05-06 19:23 | 51.13472 | 8.34182 | 20096 ft | 439 kts | 60° |
| 2026-05-06 19:23 | 51.14999 | 8.38404 | 20521 ft | 441 kts | 60° |
| 2026-05-06 19:24 | 51.16533 | 8.42654 | 20946 ft | 444 kts | 60° |
| 2026-05-06 19:24 | 51.18089 | 8.46978 | 21368 ft | 446 kts | 60° |
| 2026-05-06 19:24 | 51.19634 | 8.51223 | 21762 ft | 448 kts | 57° |
| 2026-05-06 19:24 | 51.21476 | 8.55239 | 22152 ft | 450 kts | 49° |
| 2026-05-06 19:25 | 51.23497 | 8.59067 | 22539 ft | 452 kts | 49° |
| 2026-05-06 19:25 | 51.25532 | 8.62925 | 22824 ft | 457 kts | 50° |
| 2026-05-06 19:25 | 51.27583 | 8.66828 | 23194 ft | 459 kts | 49° |
| 2026-05-06 19:25 | 51.29630 | 8.70738 | 23568 ft | 461 kts | 50° |
| 2026-05-06 19:26 | 51.31660 | 8.74634 | 23882 ft | 463 kts | 50° |
| 2026-05-06 19:26 | 51.33724 | 8.78602 | 24194 ft | 465 kts | 50° |
| 2026-05-06 19:26 | 51.35800 | 8.82602 | 24482 ft | 468 kts | 50° |
| 2026-05-06 19:26 | 51.37882 | 8.86616 | 24774 ft | 470 kts | 50° |
| 2026-05-06 19:27 | 51.39974 | 8.90646 | 25052 ft | 472 kts | 50° |
| 2026-05-06 19:27 | 51.42079 | 8.94694 | 25321 ft | 474 kts | 50° |
| 2026-05-06 19:27 | 51.44198 | 8.98762 | 25591 ft | 476 kts | 50° |
| 2026-05-06 19:27 | 51.46319 | 9.02850 | 25864 ft | 478 kts | 50° |
| 2026-05-06 19:28 | 51.48413 | 9.06904 | 26191 ft | 478 kts | 50° |
| 2026-05-06 19:28 | 51.50615 | 9.10895 | 26483 ft | 479 kts | 44° |
| 2026-05-06 19:28 | 51.53128 | 9.14413 | 26737 ft | 480 kts | 38° |
| 2026-05-06 19:28 | 51.55730 | 9.17769 | 27097 ft | 479 kts | 38° |
| 2026-05-06 19:29 | 51.58314 | 9.21108 | 27459 ft | 479 kts | 38° |
| 2026-05-06 19:29 | 51.60908 | 9.24468 | 27817 ft | 479 kts | 38° |
| 2026-05-06 19:29 | 51.63499 | 9.27839 | 28177 ft | 478 kts | 38° |
| 2026-05-06 19:29 | 51.66083 | 9.31209 | 28536 ft | 478 kts | 38° |
| 2026-05-06 19:30 | 51.68661 | 9.34579 | 28951 ft | 476 kts | 38° |
| 2026-05-06 19:30 | 51.71183 | 9.37881 | 29556 ft | 470 kts | 39° |
| 2026-05-06 19:30 | 51.73715 | 9.41198 | 30028 ft | 467 kts | 38° |
| 2026-05-06 19:30 | 51.76222 | 9.44474 | 30356 ft | 467 kts | 37° |
| 2026-05-06 19:31 | 51.78922 | 9.47362 | 30633 ft | 466 kts | 27° |
| 2026-05-06 19:31 | 51.81889 | 9.49455 | 30898 ft | 465 kts | 17° |
| 2026-05-06 19:31 | 51.88233 | 9.51091 | 31427 ft | 462 kts | 357° |
| 2026-05-06 19:32 | 51.91383 | 9.50612 | 31702 ft | 460 kts | 347° |
| 2026-05-06 19:32 | 51.94522 | 9.49611 | 31983 ft | 460 kts | 346° |
| 2026-05-06 19:32 | 51.97665 | 9.48597 | 32253 ft | 460 kts | 346° |
| 2026-05-06 19:32 | 52.00804 | 9.47587 | 32538 ft | 461 kts | 346° |
| 2026-05-06 19:33 | 52.03951 | 9.46573 | 32809 ft | 461 kts | 346° |
| 2026-05-06 19:33 | 52.07097 | 9.45554 | 33089 ft | 461 kts | 346° |
| 2026-05-06 19:33 | 52.10247 | 9.44529 | 33370 ft | 462 kts | 346° |
| 2026-05-06 19:33 | 52.13396 | 9.43505 | 33645 ft | 462 kts | 346° |
| 2026-05-06 19:34 | 52.16551 | 9.42481 | 33932 ft | 462 kts | 346° |
| 2026-05-06 19:34 | 52.19654 | 9.41471 | 34187 ft | 461 kts | 346° |
| 2026-05-06 19:34 | 52.22806 | 9.40445 | 34436 ft | 461 kts | 346° |
| 2026-05-06 19:34 | 52.25950 | 9.39422 | 34656 ft | 462 kts | 346° |
| 2026-05-06 19:35 | 52.29106 | 9.38398 | 34885 ft | 462 kts | 346° |
| 2026-05-06 19:35 | 52.32255 | 9.37374 | 35109 ft | 462 kts | 346° |
| 2026-05-06 19:35 | 52.35403 | 9.36345 | 35313 ft | 462 kts | 346° |
| 2026-05-06 19:35 | 52.38559 | 9.35313 | 35520 ft | 462 kts | 346° |
| 2026-05-06 19:36 | 52.41711 | 9.34275 | 35743 ft | 462 kts | 346° |
| 2026-05-06 19:36 | 52.44866 | 9.33239 | 35846 ft | 464 kts | 346° |
| 2026-05-06 19:36 | 52.51180 | 9.31162 | 35867 ft | 467 kts | 346° |
| 2026-05-06 19:37 | 52.57553 | 9.29053 | 35869 ft | 467 kts | 346° |
| 2026-05-06 19:37 | 52.62845 | 9.27302 | 35870 ft | 467 kts | 346° |
| 2026-05-06 19:38 | 52.70252 | 9.24846 | 35882 ft | 467 kts | 346° |
| 2026-05-06 19:38 | 52.76612 | 9.22720 | 35882 ft | 467 kts | 346° |
| 2026-05-06 19:39 | 52.82974 | 9.20596 | 35887 ft | 466 kts | 346° |
| 2026-05-06 19:39 | 52.89339 | 9.18450 | 35893 ft | 466 kts | 345° |
| 2026-05-06 19:40 | 52.95696 | 9.16309 | 35916 ft | 466 kts | 346° |
| 2026-05-06 19:40 | 53.02003 | 9.14200 | 35932 ft | 465 kts | 346° |
| 2026-05-06 19:41 | 53.08342 | 9.12063 | 35930 ft | 464 kts | 346° |
| 2026-05-06 19:41 | 53.14667 | 9.09916 | 35927 ft | 464 kts | 346° |
| 2026-05-06 19:42 | 53.20988 | 9.07763 | 35924 ft | 463 kts | 346° |
| 2026-05-06 19:42 | 53.27305 | 9.05602 | 35918 ft | 463 kts | 346° |
| 2026-05-06 19:43 | 53.33576 | 9.03455 | 35913 ft | 463 kts | 346° |
| 2026-05-06 19:43 | 53.39889 | 9.01293 | 35915 ft | 463 kts | 346° |
| 2026-05-06 19:44 | 53.46197 | 8.99123 | 35916 ft | 463 kts | 346° |
| 2026-05-06 19:44 | 53.52496 | 8.96941 | 35915 ft | 462 kts | 346° |
| 2026-05-06 19:45 | 53.57729 | 8.95121 | 35915 ft | 462 kts | 346° |
| 2026-05-06 19:45 | 53.65050 | 8.92570 | 35922 ft | 462 kts | 346° |
| 2026-05-06 19:46 | 53.71344 | 8.90372 | 35929 ft | 462 kts | 346° |
| 2026-05-06 19:46 | 53.76571 | 8.88545 | 35938 ft | 462 kts | 346° |
| 2026-05-06 19:47 | 53.82864 | 8.86355 | 35927 ft | 462 kts | 346° |
| 2026-05-06 19:47 | 53.89160 | 8.84148 | 35922 ft | 462 kts | 345° |
| 2026-05-06 19:48 | 53.95445 | 8.81921 | 35929 ft | 462 kts | 345° |
| 2026-05-06 19:48 | 54.01735 | 8.79695 | 35921 ft | 462 kts | 345° |
| 2026-05-06 19:49 | 54.07981 | 8.77488 | 35918 ft | 462 kts | 345° |
| 2026-05-06 19:49 | 54.14270 | 8.75250 | 35920 ft | 462 kts | 345° |
| 2026-05-06 19:50 | 54.20557 | 8.73003 | 35930 ft | 462 kts | 345° |
| 2026-05-06 19:50 | 54.26841 | 8.70742 | 35936 ft | 462 kts | 345° |
| 2026-05-06 19:51 | 54.33090 | 8.68496 | 35932 ft | 462 kts | 345° |
| 2026-05-06 19:51 | 54.39378 | 8.66230 | 35935 ft | 462 kts | 345° |
| 2026-05-06 19:52 | 54.45664 | 8.63965 | 35948 ft | 462 kts | 345° |
| 2026-05-06 19:52 | 54.51954 | 8.61693 | 35942 ft | 462 kts | 345° |
| 2026-05-06 19:53 | 54.58242 | 8.59397 | 35959 ft | 462 kts | 345° |
| 2026-05-06 19:53 | 54.64480 | 8.57111 | 35957 ft | 461 kts | 345° |
| 2026-05-06 19:54 | 54.70760 | 8.54806 | 35970 ft | 461 kts | 345° |
| 2026-05-06 19:54 | 54.77034 | 8.52507 | 35972 ft | 461 kts | 344° |
| 2026-05-06 19:55 | 54.83309 | 8.50193 | 35968 ft | 461 kts | 344° |
| 2026-05-06 19:55 | 54.89536 | 8.47897 | 35973 ft | 461 kts | 344° |
| 2026-05-06 19:56 | 54.95806 | 8.45587 | 35972 ft | 460 kts | 344° |
| 2026-05-06 19:56 | 55.02069 | 8.43252 | 35994 ft | 460 kts | 344° |
| 2026-05-06 19:57 | 55.08306 | 8.40772 | 35987 ft | 459 kts | 341° |
| 2026-05-06 19:57 | 55.14424 | 8.37623 | 35983 ft | 457 kts | 338° |
| 2026-05-06 19:58 | 55.20422 | 8.34190 | 35988 ft | 457 kts | 338° |
| 2026-05-06 19:58 | 55.26478 | 8.30809 | 36002 ft | 457 kts | 339° |
| 2026-05-06 19:59 | 55.32567 | 8.27535 | 35998 ft | 458 kts | 339° |
| 2026-05-06 19:59 | 55.38659 | 8.24266 | 35980 ft | 458 kts | 339° |
| 2026-05-06 20:00 | 55.44753 | 8.20970 | 35990 ft | 458 kts | 339° |
| 2026-05-06 20:00 | 55.50810 | 8.17668 | 35994 ft | 458 kts | 339° |
| 2026-05-06 20:01 | 55.56895 | 8.14323 | 36008 ft | 458 kts | 338° |
| 2026-05-06 20:01 | 55.62992 | 8.10969 | 36009 ft | 459 kts | 338° |
| 2026-05-06 20:02 | 55.69087 | 8.07621 | 36014 ft | 459 kts | 338° |
| 2026-05-06 20:02 | 55.75181 | 8.04257 | 36014 ft | 459 kts | 338° |
| 2026-05-06 20:03 | 55.81273 | 8.00868 | 36017 ft | 459 kts | 338° |
| 2026-05-06 20:03 | 55.87325 | 7.97510 | 36013 ft | 459 kts | 338° |
| 2026-05-06 20:04 | 55.93417 | 7.94117 | 36013 ft | 459 kts | 338° |
| 2026-05-06 20:04 | 55.99513 | 7.90717 | 36027 ft | 459 kts | 338° |
| 2026-05-06 20:05 | 56.05594 | 7.87303 | 36053 ft | 458 kts | 338° |
| 2026-05-06 20:05 | 56.11677 | 7.83876 | 36053 ft | 458 kts | 338° |
| 2026-05-06 20:06 | 56.17717 | 7.80470 | 36042 ft | 458 kts | 338° |
| 2026-05-06 20:06 | 56.23793 | 7.77013 | 36038 ft | 458 kts | 338° |
| 2026-05-06 20:07 | 56.29869 | 7.73560 | 36039 ft | 458 kts | 338° |
| 2026-05-06 20:07 | 56.35948 | 7.70100 | 36054 ft | 458 kts | 337° |
| 2026-05-06 20:08 | 56.42017 | 7.66612 | 36049 ft | 458 kts | 337° |
| 2026-05-06 20:08 | 56.48089 | 7.63121 | 36045 ft | 458 kts | 337° |
| 2026-05-06 20:09 | 56.54116 | 7.59648 | 36041 ft | 458 kts | 337° |
| 2026-05-06 20:09 | 56.60185 | 7.56126 | 36037 ft | 458 kts | 337° |
| 2026-05-06 20:10 | 56.66240 | 7.52606 | 36044 ft | 457 kts | 338° |
| 2026-05-06 20:10 | 56.72293 | 7.49084 | 36042 ft | 456 kts | 337° |
| 2026-05-06 20:11 | 56.78294 | 7.45576 | 36039 ft | 456 kts | 337° |
| 2026-05-06 20:11 | 56.84339 | 7.42046 | 36038 ft | 456 kts | 337° |
| 2026-05-06 20:12 | 56.90386 | 7.38511 | 36051 ft | 456 kts | 337° |
| 2026-05-06 20:12 | 56.96420 | 7.34946 | 36043 ft | 456 kts | 337° |
| 2026-05-06 20:13 | 57.02414 | 7.31387 | 36040 ft | 456 kts | 337° |
| 2026-05-06 20:13 | 57.08439 | 7.27793 | 36033 ft | 456 kts | 337° |
| 2026-05-06 20:14 | 57.14469 | 7.24195 | 36031 ft | 455 kts | 337° |
| 2026-05-06 20:14 | 57.20499 | 7.20591 | 36053 ft | 455 kts | 337° |
| 2026-05-06 20:15 | 57.26482 | 7.16996 | 36042 ft | 455 kts | 337° |
| 2026-05-06 20:15 | 57.32499 | 7.13362 | 36055 ft | 454 kts | 337° |
| 2026-05-06 20:16 | 57.38500 | 7.09739 | 36048 ft | 454 kts | 337° |
| 2026-05-06 20:16 | 57.44497 | 7.06096 | 36041 ft | 453 kts | 337° |
| 2026-05-06 20:17 | 57.50445 | 7.02475 | 36055 ft | 453 kts | 337° |
| 2026-05-06 20:17 | 57.56428 | 6.98831 | 36047 ft | 452 kts | 337° |
| 2026-05-06 20:18 | 57.62409 | 6.95165 | 36040 ft | 452 kts | 336° |
| 2026-05-06 20:18 | 57.68385 | 6.91481 | 36037 ft | 452 kts | 336° |
| 2026-05-06 20:19 | 57.74313 | 6.87817 | 36066 ft | 452 kts | 336° |
| 2026-05-06 20:19 | 57.80286 | 6.84113 | 36056 ft | 452 kts | 336° |
| 2026-05-06 20:20 | 57.86250 | 6.80407 | 36054 ft | 452 kts | 336° |
| 2026-05-06 20:20 | 57.92218 | 6.76696 | 36048 ft | 451 kts | 336° |
| 2026-05-06 20:21 | 57.98174 | 6.72962 | 36053 ft | 451 kts | 336° |
| 2026-05-06 20:21 | 58.04089 | 6.69252 | 36055 ft | 450 kts | 336° |
| 2026-05-06 20:22 | 58.10004 | 6.65525 | 36038 ft | 448 kts | 336° |
| 2026-05-06 20:22 | 58.15910 | 6.61780 | 36043 ft | 448 kts | 336° |
| 2026-05-06 20:23 | 58.21817 | 6.58027 | 36042 ft | 448 kts | 336° |
| 2026-05-06 20:23 | 58.27683 | 6.54299 | 36040 ft | 447 kts | 336° |
| 2026-05-06 20:24 | 58.33580 | 6.50525 | 36063 ft | 447 kts | 336° |
| 2026-05-06 20:24 | 58.39469 | 6.46748 | 36057 ft | 446 kts | 336° |
| 2026-05-06 20:25 | 58.45347 | 6.42965 | 36054 ft | 446 kts | 336° |
| 2026-05-06 20:25 | 58.51187 | 6.39184 | 36051 ft | 446 kts | 336° |
| 2026-05-06 20:26 | 58.57066 | 6.35377 | 36051 ft | 446 kts | 336° |
| 2026-05-06 20:26 | 58.62946 | 6.31552 | 36051 ft | 446 kts | 336° |
| 2026-05-06 20:27 | 58.68830 | 6.27714 | 36060 ft | 446 kts | 336° |
| 2026-05-06 20:27 | 58.74691 | 6.23865 | 36070 ft | 445 kts | 336° |
| 2026-05-06 20:28 | 58.80549 | 6.20009 | 36076 ft | 444 kts | 336° |
| 2026-05-06 20:28 | 58.86348 | 6.16190 | 35918 ft | 443 kts | 336° |
| 2026-05-06 20:29 | 58.89260 | 6.14267 | 35711 ft | 441 kts | 335° |
| 2026-05-06 20:29 | 58.92162 | 6.12344 | 35473 ft | 441 kts | 335° |
| 2026-05-06 20:29 | 58.95058 | 6.10419 | 35233 ft | 440 kts | 335° |
| 2026-05-06 20:29 | 58.97947 | 6.08493 | 34995 ft | 438 kts | 335° |
| 2026-05-06 20:30 | 59.00828 | 6.06569 | 34760 ft | 437 kts | 335° |
| 2026-05-06 20:30 | 59.06538 | 6.02771 | 34288 ft | 437 kts | 336° |
| 2026-05-06 20:30 | 59.09510 | 6.01404 | 34065 ft | 441 kts | 342° |
| 2026-05-06 20:31 | 59.12525 | 6.00272 | 34040 ft | 440 kts | 342° |
| 2026-05-06 20:31 | 59.18545 | 5.97999 | 34088 ft | 441 kts | 342° |
| 2026-05-06 20:32 | 59.24573 | 5.95685 | 34046 ft | 442 kts | 342° |
| 2026-05-06 20:32 | 59.30563 | 5.93376 | 34046 ft | 442 kts | 342° |
| 2026-05-06 20:33 | 59.36601 | 5.91058 | 34041 ft | 442 kts | 342° |
| 2026-05-06 20:33 | 59.42645 | 5.88742 | 32875 ft | 448 kts | 343° |
| 2026-05-06 20:33 | 59.45792 | 5.88065 | 31770 ft | 459 kts | 348° |
| 2026-05-06 20:34 | 59.48990 | 5.87551 | 30812 ft | 463 kts | 347° |
| 2026-05-06 20:34 | 59.52168 | 5.87034 | 29841 ft | 466 kts | 347° |
| 2026-05-06 20:34 | 59.55405 | 5.86505 | 28734 ft | 467 kts | 347° |
| 2026-05-06 20:34 | 59.58634 | 5.85979 | 27593 ft | 468 kts | 347° |
| 2026-05-06 20:35 | 59.61893 | 5.85445 | 26466 ft | 469 kts | 347° |
| 2026-05-06 20:35 | 59.65141 | 5.84912 | 25302 ft | 470 kts | 348° |
| 2026-05-06 20:35 | 59.68407 | 5.84377 | 24126 ft | 471 kts | 348° |
| 2026-05-06 20:35 | 59.71663 | 5.83846 | 23274 ft | 464 kts | 348° |
| 2026-05-06 20:36 | 59.74824 | 5.83347 | 21936 ft | 450 kts | 348° |
| 2026-05-06 20:36 | 59.77906 | 5.82854 | 20531 ft | 440 kts | 348° |
| 2026-05-06 20:36 | 59.80941 | 5.82350 | 19494 ft | 431 kts | 348° |
| 2026-05-06 20:36 | 59.83839 | 5.81540 | 18729 ft | 422 kts | 343° |
| 2026-05-06 20:37 | 59.86713 | 5.80484 | 17921 ft | 419 kts | 343° |
| 2026-05-06 20:37 | 59.89566 | 5.79447 | 17173 ft | 415 kts | 344° |
| 2026-05-06 20:37 | 59.92394 | 5.78429 | 16449 ft | 410 kts | 344° |
| 2026-05-06 20:37 | 59.95178 | 5.77432 | 15759 ft | 405 kts | 344° |
| 2026-05-06 20:38 | 59.97934 | 5.76443 | 15089 ft | 399 kts | 344° |
| 2026-05-06 20:38 | 60.00651 | 5.75463 | 14436 ft | 395 kts | 344° |
| 2026-05-06 20:38 | 60.03337 | 5.74492 | 13806 ft | 390 kts | 344° |
| 2026-05-06 20:38 | 60.05989 | 5.73528 | 13167 ft | 385 kts | 345° |
| 2026-05-06 20:39 | 60.08565 | 5.72591 | 12553 ft | 378 kts | 346° |
| 2026-05-06 20:39 | 60.11130 | 5.71663 | 11962 ft | 372 kts | 346° |
| 2026-05-06 20:39 | 60.13655 | 5.70752 | 11401 ft | 366 kts | 347° |
| 2026-05-06 20:39 | 60.16098 | 5.69972 | 11228 ft | 343 kts | 348° |
| 2026-05-06 20:40 | 60.18359 | 5.69346 | 11092 ft | 314 kts | 349° |
| 2026-05-06 20:40 | 60.20437 | 5.68809 | 10928 ft | 290 kts | 349° |
| 2026-05-06 20:40 | 60.22410 | 5.68295 | 10688 ft | 283 kts | 349° |
| 2026-05-06 20:40 | 60.24340 | 5.67780 | 10431 ft | 278 kts | 349° |
| 2026-05-06 20:41 | 60.26245 | 5.67256 | 10177 ft | 275 kts | 349° |
| 2026-05-06 20:41 | 60.28107 | 5.66734 | 9929 ft | 273 kts | 349° |
| 2026-05-06 20:41 | 60.29987 | 5.66203 | 9788 ft | 273 kts | 349° |
| 2026-05-06 20:41 | 60.31866 | 5.65675 | 9652 ft | 273 kts | 349° |
| 2026-05-06 20:42 | 60.33740 | 5.65148 | 9506 ft | 272 kts | 349° |
| 2026-05-06 20:42 | 60.35624 | 5.64616 | 9380 ft | 274 kts | 349° |
| 2026-05-06 20:42 | 60.37514 | 5.64079 | 9239 ft | 275 kts | 349° |
| 2026-05-06 20:42 | 60.39410 | 5.63539 | 9103 ft | 275 kts | 349° |
| 2026-05-06 20:43 | 60.41313 | 5.62995 | 8593 ft | 280 kts | 349° |
| 2026-05-06 20:43 | 60.43183 | 5.62462 | 8307 ft | 268 kts | 349° |
| 2026-05-06 20:43 | 60.44994 | 5.61952 | 8166 ft | 257 kts | 349° |
| 2026-05-06 20:43 | 60.46730 | 5.61461 | 7987 ft | 247 kts | 349° |
| 2026-05-06 20:44 | 60.48408 | 5.61179 | 7803 ft | 239 kts | 358° |
| 2026-05-06 20:44 | 60.50071 | 5.61237 | 7674 ft | 239 kts | 358° |
| 2026-05-06 20:44 | 60.51732 | 5.61284 | 7538 ft | 238 kts | 358° |
| 2026-05-06 20:44 | 60.53383 | 5.61192 | 7416 ft | 236 kts | 348° |
| 2026-05-06 20:45 | 60.54950 | 5.60324 | 7299 ft | 233 kts | 338° |
| 2026-05-06 20:45 | 60.56460 | 5.59236 | 7150 ft | 233 kts | 338° |
| 2026-05-06 20:45 | 60.57993 | 5.58140 | 7029 ft | 233 kts | 338° |
| 2026-05-06 20:45 | 60.59426 | 5.56665 | 6898 ft | 230 kts | 322° |
| 2026-05-06 20:46 | 60.60669 | 5.54634 | 6767 ft | 229 kts | 319° |
| 2026-05-06 20:46 | 60.61902 | 5.52579 | 6640 ft | 229 kts | 319° |
| 2026-05-06 20:46 | 60.63116 | 5.50483 | 6511 ft | 228 kts | 313° |
| 2026-05-06 20:46 | 60.64059 | 5.47945 | 6202 ft | 224 kts | 298° |
| 2026-05-06 20:47 | 60.64849 | 5.45197 | 5850 ft | 225 kts | 299° |
| 2026-05-06 20:47 | 60.65641 | 5.42457 | 5544 ft | 223 kts | 298° |
| 2026-05-06 20:47 | 60.66314 | 5.39742 | 5388 ft | 213 kts | 288° |
| 2026-05-06 20:47 | 60.66636 | 5.36761 | 4881 ft | 219 kts | 277° |
| 2026-05-06 20:48 | 60.66851 | 5.33685 | 4499 ft | 219 kts | 272° |
| 2026-05-06 20:48 | 60.66609 | 5.30664 | 4125 ft | 217 kts | 244° |
| 2026-05-06 20:48 | 60.65688 | 5.28262 | 4007 ft | 217 kts | 217° |
| 2026-05-06 20:48 | 60.64309 | 5.26981 | 3998 ft | 223 kts | 190° |
| 2026-05-06 20:49 | 60.62745 | 5.26956 | 4008 ft | 228 kts | 179° |
| 2026-05-06 20:49 | 60.61161 | 5.27107 | 4008 ft | 228 kts | 179° |
| 2026-05-06 20:49 | 60.59609 | 5.26810 | 4005 ft | 219 kts | 198° |
| 2026-05-06 20:49 | 60.58215 | 5.25850 | 4007 ft | 206 kts | 202° |
| 2026-05-06 20:50 | 60.56928 | 5.24618 | 4006 ft | 204 kts | 211° |
| 2026-05-06 20:50 | 60.55702 | 5.23161 | 4000 ft | 203 kts | 212° |
| 2026-05-06 20:50 | 60.54514 | 5.21702 | 3740 ft | 202 kts | 213° |
| 2026-05-06 20:50 | 60.53316 | 5.20216 | 3435 ft | 202 kts | 213° |
| 2026-05-06 20:51 | 60.52116 | 5.18712 | 3059 ft | 206 kts | 212° |
| 2026-05-06 20:51 | 60.50875 | 5.17136 | 2596 ft | 213 kts | 213° |
| 2026-05-06 20:51 | 60.49568 | 5.15757 | 2402 ft | 212 kts | 196° |
| 2026-05-06 20:51 | 60.48102 | 5.15478 | 2401 ft | 215 kts | 173° |
| 2026-05-06 20:52 | 60.46625 | 5.15965 | 2426 ft | 215 kts | 171° |
| 2026-05-06 20:52 | 60.45147 | 5.16473 | 2428 ft | 215 kts | 171° |
| 2026-05-06 20:52 | 60.43689 | 5.16969 | 2429 ft | 214 kts | 171° |
| 2026-05-06 20:52 | 60.42220 | 5.17468 | 2431 ft | 215 kts | 171° |
| 2026-05-06 20:53 | 60.40781 | 5.17956 | 2424 ft | 198 kts | 171° |
| 2026-05-06 20:53 | 60.39489 | 5.18395 | 2407 ft | 182 kts | 171° |
| 2026-05-06 20:53 | 60.38243 | 5.18813 | 2054 ft | 181 kts | 171° |
| 2026-05-06 20:53 | 60.37014 | 5.19227 | 1669 ft | 176 kts | 171° |
| 2026-05-06 20:54 | 60.35845 | 5.19622 | 1380 ft | 165 kts | 171° |
| 2026-05-06 20:54 | 60.34758 | 5.19988 | 1145 ft | 151 kts | 171° |
| 2026-05-06 20:54 | 60.33754 | 5.20327 | 910 ft | 142 kts | 171° |
| 2026-05-06 20:54 | 60.32792 | 5.20649 | 700 ft | 138 kts | 171° |
| 2026-05-06 20:55 | 60.31862 | 5.20967 | 478 ft | 137 kts | 171° |
| 2026-05-06 20:55 | 60.30931 | 5.21280 | 274 ft | 135 kts | 171° |
| 2026-05-06 20:55 | 60.30013 | 5.21582 | 165 ft | 133 kts | 171° |
| 2026-05-06 20:55 | 60.29242 | 5.21823 | 153 ft | 63 kts | 171° |
| 2026-05-06 20:56 | 60.29042 | 5.21905 | 151 ft | 24 kts | 167° |
| 2026-05-06 20:56 | 60.28916 | 5.22044 | 149 ft | 18 kts | 110° |
| 2026-05-06 20:56 | 60.28925 | 5.22178 | 150 ft | 0 kts | 82° |
| 2026-05-06 20:57 | 60.28928 | 5.22217 | 151 ft | 7 kts | 83° |
| 2026-05-06 20:57 | 60.28931 | 5.22364 | 151 ft | 13 kts | 109° |
| 2026-05-06 20:57 | 60.28892 | 5.22475 | 150 ft | 10 kts | 97° |
| 2026-05-06 20:58 | 60.28889 | 5.22534 | 150 ft | 0 kts | 93° |